createdAt,value
2019-02-14T00:00:59.469Z,1.70
2019-02-14T00:03:27.082Z,1.70
2019-02-14T00:05:54.399Z,1.70
2019-02-14T00:08:21.893Z,1.70
2019-02-14T00:10:49.262Z,1.70
2019-02-14T00:13:16.581Z,1.70
2019-02-14T00:15:43.873Z,1.80
2019-02-14T00:18:11.302Z,1.90
2019-02-14T00:20:38.742Z,1.90
2019-02-14T00:23:06.239Z,1.90
2019-02-14T00:25:36.578Z,1.80
2019-02-14T00:28:03.888Z,1.80
2019-02-14T00:30:31.418Z,1.70
2019-02-14T00:32:59.094Z,1.70
2019-02-14T00:35:26.510Z,1.70
2019-02-14T00:37:53.824Z,1.70
2019-02-14T00:40:21.119Z,1.70
2019-02-14T00:42:48.577Z,1.70
2019-02-14T00:45:16.117Z,1.70
2019-02-14T00:47:43.582Z,1.70
2019-02-14T00:50:10.777Z,1.60
2019-02-14T00:52:38.065Z,1.60
2019-02-14T00:55:05.386Z,1.60
2019-02-14T00:57:32.776Z,1.50
2019-02-14T01:00:00.300Z,1.40
2019-02-14T01:02:27.813Z,1.30
2019-02-14T01:04:55.320Z,1.30
2019-02-14T01:07:23.698Z,1.30
2019-02-14T01:09:51.235Z,1.30
2019-02-14T01:12:18.826Z,1.40
2019-02-14T01:14:46.244Z,1.40
2019-02-14T01:17:13.654Z,1.40
2019-02-14T01:19:41.039Z,1.50
2019-02-14T01:22:08.474Z,1.50
2019-02-14T01:24:35.652Z,1.50
2019-02-14T01:27:03.217Z,1.50
2019-02-14T01:29:30.485Z,1.50
2019-02-14T01:31:57.827Z,1.40
2019-02-14T01:34:25.216Z,1.30
2019-02-14T01:36:52.494Z,1.30
2019-02-14T01:39:20.035Z,1.30
2019-02-14T01:41:47.353Z,1.20
2019-02-14T01:44:14.769Z,1.10
2019-02-14T01:46:41.999Z,1.10
2019-02-14T01:49:09.353Z,1.10
2019-02-14T01:51:36.683Z,1.10
2019-02-14T01:54:04.090Z,1.10
2019-02-14T01:56:31.527Z,1.10
2019-02-14T01:58:58.850Z,1.10
2019-02-14T02:01:27.346Z,1.10
2019-02-14T02:03:54.819Z,1.20
2019-02-14T02:06:22.308Z,1.20
2019-02-14T02:08:49.709Z,1.30
2019-02-14T02:11:17.063Z,1.30
2019-02-14T02:13:44.422Z,1.30
2019-02-14T02:16:11.692Z,1.30
2019-02-14T02:18:39.322Z,1.30
2019-02-14T02:21:06.744Z,1.30
2019-02-14T02:23:34.303Z,1.30
2019-02-14T02:26:01.686Z,1.30
2019-02-14T02:28:29.574Z,1.20
2019-02-14T02:30:57.058Z,1.20
2019-02-14T02:33:24.525Z,1.10
2019-02-14T02:36:00.231Z,1.10
2019-02-14T02:38:20.993Z,1.00
2019-02-14T02:40:48.455Z,1.00
2019-02-14T02:43:15.843Z,0.90
2019-02-14T02:45:43.024Z,0.90
2019-02-14T02:48:10.351Z,0.90
2019-02-14T02:50:37.814Z,0.90
2019-02-14T02:53:05.243Z,0.80
2019-02-14T02:55:32.552Z,0.80
2019-02-14T02:57:59.959Z,0.70
2019-02-14T03:00:27.456Z,0.70
2019-02-14T03:02:54.849Z,0.70
2019-02-14T03:05:22.123Z,0.70
2019-02-14T03:07:49.489Z,0.70
2019-02-14T03:10:16.906Z,0.60
2019-02-14T03:12:44.315Z,0.60
2019-02-14T03:15:12.096Z,0.60
2019-02-14T03:17:39.377Z,0.60
2019-02-14T03:20:08.290Z,0.60
2019-02-14T03:22:35.681Z,0.60
2019-02-14T03:25:03.822Z,0.60
2019-02-14T03:27:31.240Z,0.60
2019-02-14T03:29:59.697Z,0.70
2019-02-14T03:32:27.051Z,0.70
2019-02-14T03:34:54.491Z,0.70
2019-02-14T03:37:22.185Z,0.70
2019-02-14T03:39:49.618Z,0.70
2019-02-14T03:42:16.961Z,0.70
2019-02-14T03:44:44.303Z,0.60
2019-02-14T03:47:11.715Z,0.60
2019-02-14T03:49:39.001Z,0.60
2019-02-14T03:52:10.531Z,0.60
2019-02-14T03:54:38.226Z,0.70
2019-02-14T03:57:06.769Z,0.60
2019-02-14T03:59:34.261Z,0.60
2019-02-14T04:02:01.678Z,0.60
2019-02-14T04:04:29.318Z,0.60
2019-02-14T04:06:56.865Z,0.60
2019-02-14T04:09:24.267Z,0.60
2019-02-14T04:11:51.732Z,0.60
2019-02-14T04:14:19.101Z,0.60
2019-02-14T04:16:46.560Z,0.70
2019-02-14T04:19:13.901Z,0.70
2019-02-14T04:21:41.279Z,0.70
2019-02-14T04:24:08.714Z,0.70
2019-02-14T04:26:35.960Z,0.70
2019-02-14T04:29:03.336Z,0.70
2019-02-14T04:31:30.701Z,0.70
2019-02-14T04:33:57.902Z,0.80
2019-02-14T04:36:25.322Z,0.80
2019-02-14T04:38:52.677Z,0.80
2019-02-14T04:41:20.080Z,0.80
2019-02-14T04:43:47.605Z,0.70
2019-02-14T04:46:15.024Z,0.70
2019-02-14T04:48:42.506Z,0.60
2019-02-14T04:51:09.771Z,0.50
2019-02-14T04:53:37.323Z,0.50
2019-02-14T04:56:04.757Z,0.40
2019-02-14T04:58:32.128Z,0.40
2019-02-14T05:00:59.530Z,0.30
2019-02-14T05:03:26.994Z,0.20
2019-02-14T05:05:54.363Z,0.20
2019-02-14T05:08:22.960Z,0.20
2019-02-14T05:10:50.328Z,0.20
2019-02-14T05:13:20.384Z,0.30
2019-02-14T05:15:48.824Z,0.30
2019-02-14T05:18:16.184Z,0.30
2019-02-14T05:20:43.404Z,0.30
2019-02-14T05:23:10.855Z,0.30
2019-02-14T05:25:38.209Z,0.30
2019-02-14T05:28:05.558Z,0.30
2019-02-14T05:30:33.014Z,0.40
2019-02-14T05:33:00.478Z,0.40
2019-02-14T05:35:27.841Z,0.30
2019-02-14T05:37:55.318Z,0.30
2019-02-14T05:40:22.700Z,0.30
2019-02-14T05:42:50.390Z,0.30
2019-02-14T05:45:17.770Z,0.30
2019-02-14T05:47:45.160Z,0.30
2019-02-14T05:50:12.500Z,0.40
2019-02-14T05:52:40.004Z,0.40
2019-02-14T05:55:08.468Z,0.30
2019-02-14T05:57:35.848Z,0.40
2019-02-14T06:00:03.874Z,0.40
2019-02-14T06:02:32.429Z,0.40
2019-02-14T06:05:01.729Z,0.40
2019-02-14T06:07:29.184Z,0.40
2019-02-14T06:09:56.660Z,0.40
2019-02-14T06:12:24.057Z,0.40
2019-02-14T06:14:51.516Z,0.40
2019-02-14T06:17:18.811Z,0.40
2019-02-14T06:19:46.184Z,0.40
2019-02-14T06:22:13.457Z,0.40
2019-02-14T06:24:40.744Z,0.40
2019-02-14T06:27:08.138Z,0.40
2019-02-14T06:29:35.638Z,0.40
2019-02-14T06:32:03.039Z,0.30
2019-02-14T06:34:30.422Z,0.30
2019-02-14T06:36:57.923Z,0.30
2019-02-14T06:39:25.332Z,0.30
2019-02-14T06:41:52.950Z,0.30
2019-02-14T06:44:20.453Z,0.30
2019-02-14T06:46:48.968Z,0.30
2019-02-14T06:49:16.370Z,0.20
2019-02-14T06:51:43.753Z,0.20
2019-02-14T06:54:11.194Z,0.20
2019-02-14T06:56:38.615Z,0.20
2019-02-14T06:59:05.882Z,0.20
2019-02-14T07:01:33.227Z,0.20
2019-02-14T07:04:00.708Z,0.20
2019-02-14T07:06:28.085Z,0.20
2019-02-14T07:08:55.529Z,0.30
2019-02-14T07:11:22.743Z,0.30
2019-02-14T07:13:50.102Z,0.30
2019-02-14T07:16:17.575Z,0.30
2019-02-14T07:18:45.059Z,0.30
2019-02-14T07:21:12.470Z,0.40
2019-02-14T07:23:39.845Z,0.40
2019-02-14T07:26:07.218Z,0.50
2019-02-14T07:28:34.588Z,0.50
2019-02-14T07:31:01.973Z,0.50
2019-02-14T07:33:29.399Z,0.50
2019-02-14T07:35:56.780Z,0.60
2019-02-14T07:38:24.072Z,0.60
2019-02-14T07:40:52.431Z,0.60
2019-02-14T07:43:19.888Z,0.70
2019-02-14T07:45:47.163Z,0.70
2019-02-14T07:48:14.538Z,0.80
2019-02-14T07:50:41.886Z,0.70
2019-02-14T07:53:09.198Z,0.70
2019-02-14T07:55:36.572Z,0.60
2019-02-14T07:58:03.980Z,0.70
2019-02-14T08:00:31.442Z,0.70
2019-02-14T08:02:58.826Z,0.70
2019-02-14T08:05:26.246Z,0.70
2019-02-14T08:07:53.501Z,0.70
2019-02-14T08:10:20.902Z,0.70
2019-02-14T08:12:48.078Z,0.80
2019-02-14T08:15:15.491Z,0.80
2019-02-14T08:17:42.849Z,0.80
2019-02-14T08:20:10.552Z,0.80
2019-02-14T08:22:37.821Z,0.80
2019-02-14T08:25:06.626Z,0.90
2019-02-14T08:27:33.936Z,0.90
2019-02-14T08:30:01.285Z,1.00
2019-02-14T08:32:28.702Z,1.10
2019-02-14T08:34:56.015Z,1.10
2019-02-14T08:37:23.411Z,1.20
2019-02-14T08:39:50.786Z,1.30
2019-02-14T08:42:19.129Z,1.30
2019-02-14T08:44:46.609Z,1.50
2019-02-14T08:47:13.987Z,1.50
2019-02-14T08:49:41.409Z,1.60
2019-02-14T08:52:08.825Z,1.80
2019-02-14T08:54:36.250Z,1.90
2019-02-14T08:57:03.605Z,2.00
2019-02-14T08:59:31.882Z,2.10
2019-02-14T09:01:59.246Z,2.10
2019-02-14T09:04:26.726Z,2.20
2019-02-14T09:06:54.261Z,2.30
2019-02-14T09:09:21.596Z,2.50
2019-02-14T09:11:49.052Z,2.70
2019-02-14T09:14:16.434Z,2.80
2019-02-14T09:16:43.911Z,3.00
2019-02-14T09:19:11.109Z,3.10
2019-02-14T09:21:38.522Z,3.30
2019-02-14T09:24:05.763Z,3.50
2019-02-14T09:26:33.118Z,3.60
2019-02-14T09:29:00.406Z,3.70
2019-02-14T09:31:27.678Z,3.80
2019-02-14T09:33:55.051Z,3.90
2019-02-14T09:36:22.443Z,4.10
2019-02-14T09:38:49.870Z,4.20
2019-02-14T09:41:17.251Z,4.30
2019-02-14T09:43:44.627Z,4.40
2019-02-14T09:46:12.053Z,4.40
2019-02-14T09:48:39.477Z,4.50
2019-02-14T09:51:06.977Z,4.50
2019-02-14T09:53:34.445Z,4.40
2019-02-14T09:56:01.799Z,4.50
2019-02-14T09:58:29.435Z,4.70
2019-02-14T10:00:56.863Z,4.90
2019-02-14T10:03:24.236Z,5.10
2019-02-14T10:05:51.605Z,5.30
2019-02-14T10:08:19.055Z,5.50
2019-02-14T10:10:46.783Z,5.50
2019-02-14T10:13:14.148Z,5.40
2019-02-14T10:15:41.438Z,5.30
2019-02-14T10:18:08.788Z,5.20
2019-02-14T10:20:36.225Z,5.30
2019-02-14T10:23:03.639Z,5.40
2019-02-14T10:25:31.007Z,5.50
2019-02-14T10:27:58.540Z,5.60
2019-02-14T10:30:25.889Z,5.80
2019-02-14T10:32:53.043Z,5.70
2019-02-14T10:35:20.399Z,5.60
2019-02-14T10:37:47.745Z,5.60
2019-02-14T10:40:15.050Z,5.60
2019-02-14T10:42:42.504Z,5.50
2019-02-14T10:45:11.852Z,5.60
2019-02-14T10:47:39.165Z,5.70
2019-02-14T10:50:07.700Z,5.90
2019-02-14T10:52:35.078Z,6.10
2019-02-14T10:55:02.809Z,6.30
2019-02-14T10:57:30.154Z,6.40
2019-02-14T10:59:57.798Z,6.60
2019-02-14T11:02:25.174Z,6.90
2019-02-14T11:04:52.600Z,7.20
2019-02-14T11:07:20.094Z,7.40
2019-02-14T11:09:47.331Z,7.60
2019-02-14T11:12:14.760Z,7.60
2019-02-14T11:14:42.022Z,7.70
2019-02-14T11:17:09.418Z,7.70
2019-02-14T11:19:36.795Z,7.80
2019-02-14T11:22:04.055Z,7.90
2019-02-14T11:24:31.314Z,8.10
2019-02-14T11:26:58.649Z,8.20
2019-02-14T11:29:26.090Z,8.20
2019-02-14T11:31:53.563Z,8.20
2019-02-14T11:34:20.936Z,8.10
2019-02-14T11:36:48.359Z,8.10
2019-02-14T11:39:15.766Z,8.20
2019-02-14T11:41:43.098Z,8.80
2019-02-14T11:44:10.453Z,10.60
2019-02-14T11:46:37.650Z,11.90
2019-02-14T11:49:04.980Z,13.10
2019-02-14T11:51:32.355Z,15.30
2019-02-14T11:53:59.790Z,17.20
2019-02-14T11:56:27.158Z,18.30
2019-02-14T11:58:54.617Z,18.30
2019-02-14T12:01:21.941Z,18.50
2019-02-14T12:03:49.370Z,18.20
2019-02-14T12:06:17.738Z,18.10
2019-02-14T12:08:57.778Z,17.70
2019-02-14T12:11:14.589Z,17.20
2019-02-14T12:13:41.974Z,16.00
2019-02-14T12:16:09.608Z,14.20
2019-02-14T12:18:36.754Z,14.70
2019-02-14T12:21:03.889Z,15.90
2019-02-14T12:23:31.350Z,15.10
2019-02-14T12:25:58.659Z,14.00
2019-02-14T12:28:26.180Z,13.40
2019-02-14T12:30:53.598Z,12.70
2019-02-14T12:33:20.882Z,11.90
2019-02-14T12:35:48.274Z,11.40
2019-02-14T12:38:15.646Z,10.90
2019-02-14T12:40:43.014Z,10.70
2019-02-14T12:43:10.291Z,11.30
2019-02-14T12:45:37.790Z,12.30
2019-02-14T12:48:05.236Z,12.90
2019-02-14T12:50:32.600Z,12.60
2019-02-14T12:52:59.936Z,12.40
2019-02-14T12:55:27.228Z,12.00
2019-02-14T12:57:54.614Z,11.30
2019-02-14T13:00:22.063Z,10.80
2019-02-14T13:02:49.392Z,10.50
2019-02-14T13:05:16.807Z,10.20
2019-02-14T13:07:44.140Z,10.00
2019-02-14T13:10:11.622Z,10.10
2019-02-14T13:12:39.125Z,10.20
2019-02-14T13:15:08.963Z,10.30
2019-02-14T13:17:36.476Z,10.40
2019-02-14T13:20:04.013Z,10.60
2019-02-14T13:22:31.380Z,11.20
2019-02-14T13:24:58.658Z,12.00
2019-02-14T13:27:26.092Z,12.70
2019-02-14T13:29:53.574Z,13.30
2019-02-14T13:32:20.922Z,13.70
2019-02-14T13:34:48.284Z,13.40
2019-02-14T13:37:15.556Z,12.80
2019-02-14T13:39:43.058Z,12.20
2019-02-14T13:42:10.449Z,11.80
2019-02-14T13:44:37.838Z,11.20
2019-02-14T13:47:05.243Z,10.90
2019-02-14T13:49:32.946Z,10.50
2019-02-14T13:52:00.600Z,10.30
2019-02-14T13:54:27.915Z,10.20
2019-02-14T13:56:55.054Z,10.10
2019-02-14T13:59:22.444Z,10.10
2019-02-14T14:01:49.858Z,10.10
2019-02-14T14:04:17.314Z,10.10
2019-02-14T14:06:44.796Z,10.00
2019-02-14T14:09:12.281Z,10.10
2019-02-14T14:11:39.639Z,10.10
2019-02-14T14:14:07.013Z,10.10
2019-02-14T14:16:34.398Z,10.20
2019-02-14T14:19:06.320Z,10.20
2019-02-14T14:21:30.820Z,10.20
2019-02-14T14:23:58.253Z,10.10
2019-02-14T14:26:25.635Z,10.00
2019-02-14T14:28:52.981Z,9.90
2019-02-14T14:31:20.385Z,9.80
2019-02-14T14:33:47.718Z,9.80
2019-02-14T14:36:15.024Z,9.70
2019-02-14T14:38:42.516Z,9.60
2019-02-14T14:41:10.054Z,9.50
2019-02-14T14:43:49.005Z,9.50
2019-02-14T14:46:23.252Z,9.50
2019-02-14T14:48:50.571Z,9.60
2019-02-14T14:51:17.976Z,9.60
2019-02-14T14:53:45.406Z,9.70
2019-02-14T14:56:12.835Z,9.70
2019-02-14T14:58:40.310Z,9.60
2019-02-14T15:01:07.574Z,9.60
2019-02-14T15:03:35.029Z,9.60
2019-02-14T15:06:02.435Z,9.50
2019-02-14T15:08:29.823Z,9.50
2019-02-14T15:10:58.014Z,9.50
2019-02-14T15:13:25.338Z,9.40
2019-02-14T15:15:52.738Z,9.30
2019-02-14T15:18:20.193Z,9.20
2019-02-14T15:20:47.682Z,9.10
2019-02-14T15:23:14.992Z,9.10
2019-02-14T15:25:42.394Z,9.00
2019-02-14T15:28:09.771Z,9.00
2019-02-14T15:30:37.198Z,9.00
2019-02-14T15:33:04.540Z,9.00
2019-02-14T15:35:31.963Z,8.90
2019-02-14T15:37:59.297Z,8.90
2019-02-14T15:40:26.674Z,8.90
2019-02-14T15:42:54.144Z,8.90
2019-02-14T15:45:21.495Z,8.80
2019-02-14T15:47:48.859Z,8.80
2019-02-14T15:50:16.282Z,8.80
2019-02-14T15:52:43.680Z,8.70
2019-02-14T15:55:11.003Z,8.70
2019-02-14T15:57:40.449Z,8.70
2019-02-14T16:00:10.510Z,8.70
2019-02-14T16:02:37.355Z,8.70
2019-02-14T16:05:04.943Z,8.60
2019-02-14T16:07:32.159Z,8.60
2019-02-14T16:10:03.320Z,8.60
2019-02-14T16:12:30.276Z,8.50
2019-02-14T16:14:57.430Z,8.50
2019-02-14T16:17:24.843Z,8.40
2019-02-14T16:19:52.108Z,8.30
2019-02-14T16:22:19.588Z,8.30
2019-02-14T16:24:47.091Z,8.20
2019-02-14T16:27:14.498Z,8.10
2019-02-14T16:29:41.861Z,8.10
2019-02-14T16:32:10.410Z,8.00
2019-02-14T16:34:37.819Z,8.00
2019-02-14T16:37:05.413Z,7.90
2019-02-14T16:39:32.821Z,7.90
2019-02-14T16:42:00.114Z,7.90
2019-02-14T16:44:27.473Z,7.80
2019-02-14T16:46:54.720Z,7.80
2019-02-14T16:49:22.120Z,7.80
2019-02-14T16:51:49.599Z,7.70
2019-02-14T16:54:16.835Z,7.70
2019-02-14T16:56:44.163Z,7.60
2019-02-14T16:59:11.503Z,7.50
2019-02-14T17:01:39.281Z,7.50
2019-02-14T17:04:07.179Z,7.40
2019-02-14T17:06:35.581Z,7.40
2019-02-14T17:09:05.033Z,7.30
2019-02-14T17:11:34.472Z,7.30
2019-02-14T17:14:01.990Z,7.20
2019-02-14T17:16:38.996Z,7.10
2019-02-14T17:19:09.875Z,7.00
2019-02-14T17:21:37.513Z,6.90
2019-02-14T17:24:05.226Z,6.90
2019-02-14T17:26:32.620Z,6.80
2019-02-14T17:29:00.074Z,6.80
2019-02-14T17:31:27.330Z,6.60
2019-02-14T17:33:55.641Z,6.60
2019-02-14T17:36:22.989Z,6.50
2019-02-14T17:38:50.356Z,6.50
2019-02-14T17:41:17.844Z,6.40
2019-02-14T17:43:45.404Z,6.40
2019-02-14T17:46:12.802Z,6.30
2019-02-14T17:48:40.308Z,6.30
2019-02-14T17:51:07.790Z,6.30
2019-02-14T17:53:35.193Z,6.30
2019-02-14T17:56:02.586Z,6.20
2019-02-14T17:58:30.140Z,6.20
2019-02-14T18:00:57.514Z,6.20
2019-02-14T18:03:25.157Z,6.20
2019-02-14T18:05:52.571Z,6.20
2019-02-14T18:08:20.071Z,6.20
2019-02-14T18:10:54.734Z,6.20
2019-02-14T18:13:17.008Z,6.20
2019-02-14T18:15:44.339Z,6.20
2019-02-14T18:18:12.902Z,6.10
2019-02-14T18:20:40.315Z,6.10
2019-02-14T18:23:07.746Z,6.00
2019-02-14T18:25:35.218Z,6.00
2019-02-14T18:28:02.644Z,5.90
2019-02-14T18:30:30.137Z,5.80
2019-02-14T18:32:57.658Z,5.80
2019-02-14T18:35:25.101Z,5.70
2019-02-14T18:37:52.381Z,5.60
2019-02-14T18:40:19.826Z,5.60
2019-02-14T18:42:47.342Z,5.50
2019-02-14T18:45:14.707Z,5.40
2019-02-14T18:47:42.278Z,5.30
2019-02-14T18:50:10.082Z,5.30
2019-02-14T18:52:37.663Z,5.20
2019-02-14T18:55:05.459Z,5.20
2019-02-14T18:57:32.950Z,5.10
2019-02-14T19:00:00.443Z,5.10
2019-02-14T19:02:27.950Z,5.00
2019-02-14T19:04:55.360Z,5.00
2019-02-14T19:07:22.777Z,5.00
2019-02-14T19:09:50.237Z,5.00
2019-02-14T19:12:17.691Z,4.90
2019-02-14T19:14:45.027Z,4.90
2019-02-14T19:17:12.395Z,4.90
2019-02-14T19:19:41.010Z,4.80
2019-02-14T19:22:08.784Z,4.80
2019-02-14T19:24:36.254Z,4.70
2019-02-14T19:27:03.655Z,4.70
2019-02-14T19:29:31.057Z,4.60
2019-02-14T19:31:58.519Z,4.60
2019-02-14T19:34:25.870Z,4.50
2019-02-14T19:36:53.310Z,4.50
2019-02-14T19:39:20.783Z,4.50
2019-02-14T19:41:48.185Z,4.50
2019-02-14T19:44:15.655Z,4.50
2019-02-14T19:46:43.017Z,4.40
2019-02-14T19:49:10.442Z,4.50
2019-02-14T19:51:38.410Z,4.50
2019-02-14T19:54:05.727Z,4.50
2019-02-14T19:56:33.155Z,4.50
2019-02-14T19:59:01.238Z,4.40
2019-02-14T20:01:28.612Z,4.40
2019-02-14T20:03:56.070Z,4.40
2019-02-14T20:06:23.533Z,4.40
2019-02-14T20:08:51.012Z,4.30
2019-02-14T20:11:18.499Z,4.30
2019-02-14T20:13:49.463Z,4.20
2019-02-14T20:16:15.344Z,4.20
2019-02-14T20:18:42.818Z,4.20
2019-02-14T20:21:10.316Z,4.20
2019-02-14T20:23:37.639Z,4.20
2019-02-14T20:26:05.082Z,4.30
2019-02-14T20:28:32.578Z,4.30
2019-02-14T20:30:59.995Z,4.40
2019-02-14T20:33:27.566Z,4.50
2019-02-14T20:35:55.051Z,4.60
2019-02-14T20:38:22.458Z,4.70
2019-02-14T20:40:50.128Z,4.70
2019-02-14T20:43:17.509Z,4.70
2019-02-14T20:45:44.950Z,4.80
2019-02-14T20:48:12.467Z,5.00
2019-02-14T20:50:40.019Z,5.10
2019-02-14T20:53:07.361Z,5.10
2019-02-14T20:55:34.928Z,5.20
2019-02-14T20:58:02.334Z,5.30
2019-02-14T21:00:35.652Z,5.30
2019-02-14T21:03:03.187Z,5.30
2019-02-14T21:05:30.676Z,5.30
2019-02-14T21:07:58.065Z,5.30
2019-02-14T21:10:25.635Z,5.30
2019-02-14T21:12:53.000Z,5.20
2019-02-14T21:15:20.587Z,5.20
2019-02-14T21:17:48.061Z,5.20
2019-02-14T21:20:15.518Z,5.20
2019-02-14T21:22:43.227Z,5.10
2019-02-14T21:25:10.625Z,5.10
2019-02-14T21:27:38.164Z,5.10
2019-02-14T21:30:06.206Z,5.10
2019-02-14T21:32:33.903Z,5.10
2019-02-14T21:35:01.318Z,5.10
2019-02-14T21:37:29.044Z,5.00
2019-02-14T21:39:56.523Z,5.00
2019-02-14T21:42:29.077Z,4.90
2019-02-14T21:44:53.585Z,4.90
2019-02-14T21:47:21.055Z,4.90
2019-02-14T21:49:48.621Z,4.90
2019-02-14T21:52:16.148Z,4.90
2019-02-14T21:54:43.671Z,4.90
2019-02-14T21:57:11.101Z,4.90
2019-02-14T21:59:38.610Z,4.90
2019-02-14T22:02:06.655Z,4.90
2019-02-14T22:04:34.683Z,4.90
2019-02-14T22:07:02.150Z,4.90
2019-02-14T22:09:29.595Z,5.00
2019-02-14T22:11:57.148Z,5.00
2019-02-14T22:14:24.767Z,5.00
2019-02-14T22:16:51.953Z,5.00
2019-02-14T22:19:19.766Z,5.00
2019-02-14T22:21:54.381Z,5.00
2019-02-14T22:24:21.967Z,5.00
2019-02-14T22:26:49.230Z,5.00
2019-02-14T22:29:16.567Z,4.90
2019-02-14T22:31:44.041Z,4.80
2019-02-14T22:34:11.446Z,4.80
2019-02-14T22:36:38.848Z,4.70
2019-02-14T22:39:06.130Z,4.70
2019-02-14T22:41:35.492Z,4.60
2019-02-14T22:44:02.931Z,4.60
2019-02-14T22:46:30.298Z,4.60
2019-02-14T22:48:57.815Z,4.50
2019-02-14T22:51:25.122Z,4.50
2019-02-14T22:53:52.538Z,4.40
2019-02-14T22:56:19.741Z,4.40
2019-02-14T22:58:47.099Z,4.30
2019-02-14T23:01:14.722Z,4.30
2019-02-14T23:03:42.232Z,4.20
2019-02-14T23:06:09.520Z,4.20
2019-02-14T23:08:37.061Z,4.20
2019-02-14T23:11:04.516Z,4.10
2019-02-14T23:13:31.888Z,4.00
2019-02-14T23:15:59.095Z,4.10
2019-02-14T23:18:26.469Z,4.00
2019-02-14T23:20:53.827Z,4.10
2019-02-14T23:23:21.289Z,4.00
2019-02-14T23:25:48.674Z,4.00
2019-02-14T23:28:16.046Z,4.00
2019-02-14T23:30:43.474Z,4.10
2019-02-14T23:33:10.897Z,4.00
2019-02-14T23:35:38.340Z,3.90
2019-02-14T23:38:05.752Z,4.00
2019-02-14T23:40:33.179Z,3.90
2019-02-14T23:43:04.659Z,3.90
2019-02-14T23:45:29.758Z,3.90
2019-02-14T23:47:57.190Z,3.90
2019-02-14T23:50:24.549Z,3.90
2019-02-14T23:52:51.931Z,3.80
2019-02-14T23:55:19.336Z,3.80
2019-02-14T23:57:46.781Z,3.70
